Flight Track Log - Related Links

Times and Time Zones

All times are in EDT time to prevent confusion due to time zone crossing. See the ASA125 flight status page for this flight to view local times or setup timezone preferences in your user account.

Time Position Orientation Groundspeed Altitude Reporting Facility
EDT Latitude Longitude Course Direction KTS MPH feet Rate Location/Type
Thu 03:06:37 AM 47.4656 -122.3069 321° Northwest 165 190 1,400  Level Seattle Center
Thu 03:07:02 AM 47.4814 -122.3081 357° North 157 181 2,000 1,459 Climbing Seattle Center
Thu 03:07:14 AM 47.4922 -122.3078 North 157 181 2,300 1,833 Climbing Seattle Center
Thu 03:08:14 AM 47.5525 -122.3133 356° North 215 247 4,200 2,000 Climbing Seattle Center
Thu 03:09:14 AM 47.6047 -122.3769 321° Northwest 246 283 6,300 2,430 Climbing Seattle Center
Thu 03:10:15 AM 47.6550 -122.4514 315° West 256 295 9,100 2,380 Climbing Seattle Center
Thu 03:11:15 AM 47.7331 -122.4486 North 283 326 11,100 1,900 Climbing Seattle Center
Thu 03:12:00 AM 47.6273 -122.8927 321° Northwest  Level FlightAware Approximate
Thu 03:12:15 AM 47.8028 -122.4914 338° Northwest 304 350 12,900  Level Seattle Center
Thu 03:13:15 AM 47.8147 -122.6208 278° West 323 372 15,300 2,350 Climbing Seattle Center
Thu 03:14:15 AM 47.8236 -122.7594 276° West 339 390 17,600 2,826 Climbing Seattle Center
Thu 03:15:16 AM 47.8672 -122.8775 299° West 344 396 21,000 3,025 Climbing Seattle Center
Thu 03:16:16 AM 47.9397 -122.9608 322° Northwest 334 384 23,700 2,350 Climbing Seattle Center
Thu 03:17:16 AM 48.0097 -123.0447 321° Northwest 327 376 25,700 1,950 Climbing Seattle Center
Thu 03:18:16 AM 48.0811 -123.1286 322° Northwest 327 376 27,600 1,600 Climbing Seattle Center
Thu 03:19:16 AM 48.1519 -123.2158 321° Northwest 327 376 28,900 1,150 Climbing Seattle Center
Thu 03:20:16 AM 48.2269 -123.3072 321° Northwest 340 391 29,900 1,059 Climbing Seattle Center
Thu 03:21:32 AM 48.3167 -123.4167 321° Northwest 360 414 31,300 1,147 Climbing Vancouver Center
Thu 03:22:32 AM 48.4000 -123.5167 321° Northwest 370 426 32,500 1,100 Climbing Vancouver Center
Thu 03:23:32 AM 48.4833 -123.6167 322° Northwest 370 426 33,500 800 Climbing Vancouver Center
Thu 03:24:32 AM 48.5500 -123.7167 315° West 370 426 34,100 650 Climbing Vancouver Center
Thu 03:25:32 AM 48.6333 -123.8167 322° Northwest 380 437 34,800 750 Climbing Vancouver Center
Thu 03:26:32 AM 48.7167 -123.9333 317° Northwest 390 449 35,600 600 Climbing Vancouver Center
Thu 03:27:32 AM 48.8000 -124.0500 317° Northwest 400 460 36,000 200 Climbing Vancouver Center
Thu 03:28:32 AM 48.9000 -124.1500 327° Northwest 410 472 36,000  Level Vancouver Center
Thu 03:29:32 AM 48.9833 -124.2500 322° Northwest 400 460 36,000  Level Vancouver Center
Thu 03:30:32 AM 49.0667 -124.3833 314° West 400 460 36,000  Level Vancouver Center
Thu 03:31:32 AM 49.1500 -124.4833 322° Northwest 410 472 36,000  Level Vancouver Center
Thu 03:32:32 AM 49.2333 -124.6000 318° Northwest 400 460 36,000  Level Vancouver Center
Thu 03:33:32 AM 49.3333 -124.7000 327° Northwest 400 460 36,000  Level Vancouver Center
Thu 03:34:32 AM 49.4167 -124.8000 322° Northwest 390 449 36,000  Level Vancouver Center
Thu 03:35:32 AM 49.5000 -124.9333 314° West 400 460 36,000  Level Vancouver Center
Thu 03:36:32 AM 49.5833 -125.0333 322° Northwest 400 460 36,000  Level Vancouver Center
Thu 03:37:32 AM 49.6667 -125.1333 322° Northwest 400 460 36,000  Level Vancouver Center
Thu 03:38:32 AM 49.7500 -125.2500 318° Northwest 400 460 36,000  Level Vancouver Center
Thu 03:39:32 AM 49.8500 -125.3833 319° Northwest 410 472 36,000  Level Vancouver Center
Thu 03:40:32 AM 49.9333 -125.4833 322° Northwest 410 472 36,000  Level Vancouver Center
Thu 03:41:32 AM 50.0167 -125.5833 322° Northwest 410 472 36,000  Level Vancouver Center
Thu 03:42:32 AM 50.0833 -125.7167 308° West 410 472 36,000  Level Vancouver Center
Thu 03:43:32 AM 50.1833 -125.8333 323° Northwest 410 472 36,000  Level Vancouver Center
Thu 03:44:32 AM 50.2667 -125.9333 323° Northwest 400 460 36,000  Level Vancouver Center
Thu 03:45:32 AM 50.3500 -126.0500 318° Northwest 400 460 36,000  Level Vancouver Center
Thu 03:46:32 AM 50.4500 -126.1833 320° Northwest 400 460 36,000  Level Vancouver Center
Thu 03:47:32 AM 50.5333 -126.3000 318° Northwest 400 460 36,000  Level Vancouver Center
Thu 03:48:32 AM 50.6167 -126.4000 323° Northwest 400 460 36,000  Level Vancouver Center
Thu 03:49:32 AM 50.7000 -126.5167 318° Northwest 410 472 36,000  Level Vancouver Center
Thu 03:50:32 AM 50.7667 -126.6500 308° West 400 460 36,000  Level Vancouver Center
Thu 03:51:32 AM 50.8667 -126.7667 324° Northwest 400 460 36,000  Level Vancouver Center
Thu 03:52:32 AM 50.9500 -126.8667 323° Northwest 400 460 36,000  Level Vancouver Center
Thu 03:53:32 AM 51.0333 -127.0167 311° West 400 460 36,000  Level Vancouver Center
Thu 03:54:32 AM 51.1167 -127.1167 323° Northwest 400 460 36,000  Level Vancouver Center
Thu 03:55:32 AM 51.2000 -127.2333 319° Northwest 400 460 36,000  Level Vancouver Center
Thu 03:56:32 AM 51.2667 -127.3500 312° West 400 460 36,000  Level Vancouver Center
Thu 03:57:32 AM 51.3667 -127.4667 324° Northwest 400 460 36,000  Level Vancouver Center
Thu 03:58:32 AM 51.4500 -127.6000 315° West 400 460 36,000  Level Vancouver Center
Thu 03:59:32 AM 51.5333 -127.7167 319° Northwest 400 460 36,000  Level Vancouver Center
Thu 04:00:32 AM 51.6000 -127.8333 313° West 410 472 36,000  Level Vancouver Center
Thu 04:01:32 AM 51.6833 -127.9500 319° Northwest 410 472 36,000  Level Vancouver Center
Thu 04:02:32 AM 51.7833 -128.0833 321° Northwest 410 472 36,000  Level Vancouver Center
Thu 04:03:32 AM 51.8667 -128.2000 319° Northwest 410 472 36,000  Level Vancouver Center
Thu 04:04:32 AM 51.9333 -128.3167 313° West 410 472 36,000  Level Vancouver Center
Thu 04:05:32 AM 52.0167 -128.4333 319° Northwest 410 472 36,000  Level Vancouver Center
Thu 04:06:32 AM 52.1000 -128.5833 312° West 400 460 36,000  Level Vancouver Center
Thu 04:07:32 AM 52.2000 -128.7000 324° Northwest 410 472 36,000  Level Vancouver Center
Thu 04:08:32 AM 52.2667 -128.8167 313° West 410 472 36,000  Level Vancouver Center
Thu 04:09:32 AM 52.3500 -128.9667 312° West 410 472 36,000  Level Vancouver Center
Thu 04:10:32 AM 52.4500 -129.0833 325° Northwest 410 472 36,000  Level Vancouver Center
Thu 04:11:32 AM 52.5167 -129.2000 313° West 410 472 36,000  Level Vancouver Center
Thu 04:12:32 AM 52.6000 -129.3500 312° West 410 472 36,000  Level Vancouver Center
Thu 04:13:32 AM 52.7000 -129.4833 321° Northwest 410 472 36,000  Level Vancouver Center
Thu 04:14:32 AM 52.7667 -129.6000 313° West 410 472 36,000  Level Vancouver Center
Thu 04:15:32 AM 52.8500 -129.7500 313° West 410 472 36,000  Level Vancouver Center
Thu 04:16:32 AM 52.9500 -129.8667 325° Northwest 410 472 36,000  Level Vancouver Center
Thu 04:17:32 AM 53.0167 -130.0167 306° West 410 472 36,000  Level Vancouver Center
Thu 04:18:32 AM 53.1000 -130.1333 320° Northwest 410 472 36,000  Level Vancouver Center
Thu 04:19:32 AM 53.1833 -130.2667 316° Northwest 410 472 36,000  Level Vancouver Center
Thu 04:20:32 AM 53.2667 -130.3833 320° Northwest 410 472 36,000  Level Vancouver Center
Thu 04:21:32 AM 53.3500 -130.5333 313° West 410 472 36,000  Level Vancouver Center
Thu 04:22:32 AM 53.4333 -130.6667 316° Northwest 410 472 36,000  Level Vancouver Center
Thu 04:23:32 AM 53.5167 -130.8000 316° Northwest 420 483 36,000  Level Vancouver Center
Thu 04:24:32 AM 53.5833 -130.9500 307° West 420 483 36,000  Level Vancouver Center
Thu 04:25:32 AM 53.6833 -131.0667 325° Northwest 420 483 36,000  Level Vancouver Center
Thu 04:26:32 AM 53.7500 -131.2333 304° West 420 483 36,000  Level Vancouver Center
Thu 04:27:32 AM 53.8500 -131.3667 322° Northwest 420 483 36,000  Level Vancouver Center
Thu 04:28:32 AM 53.9167 -131.5167 307° West 420 483 36,000  Level Vancouver Center
Thu 04:29:32 AM 54.0000 -131.6500 317° Northwest 420 483 36,000  Level Vancouver Center
Thu 04:30:32 AM 54.0833 -131.8000 313° West 420 483 36,000  Level Vancouver Center
Thu 04:31:32 AM 54.1667 -131.9333 317° Northwest 420 483 36,000  Level Vancouver Center
Thu 04:32:32 AM 54.2500 -132.0833 314° West 420 483 36,000  Level Vancouver Center
Thu 04:33:32 AM 54.3333 -132.2167 317° Northwest 420 483 36,000  Level Vancouver Center
Thu 04:34:32 AM 54.4167 -132.3833 311° West 420 483 36,000  Level Vancouver Center
Thu 04:35:32 AM 54.4833 -132.5167 311° West 430 495 36,000  Level Vancouver Center
Thu 04:36:32 AM 54.5833 -132.6500 322° Northwest 420 483 36,000  Level Vancouver Center
Thu 04:37:32 AM 54.6500 -132.8167 305° West 420 483 36,000  Level Vancouver Center
Thu 04:38:32 AM 54.7500 -132.9500 322° Northwest 420 483 36,000  Level Vancouver Center
Thu 04:39:32 AM 54.8167 -133.1000 308° West 420 483 36,000  Level Vancouver Center
Thu 04:40:32 AM 54.9000 -133.2500 314° West 430 495 36,000  Level Vancouver Center
Thu 04:41:32 AM 55.0000 -133.4167 316° Northwest 430 495 36,000  Level Vancouver Center
Thu 04:42:32 AM 55.0667 -133.5500 311° West 430 495 36,000  Level Vancouver Center
Thu 04:43:32 AM 55.1500 -133.7167 311° West 430 495 36,000  Level Vancouver Center
Thu 04:44:32 AM 55.2333 -133.8500 318° Northwest 430 495 36,000  Level Vancouver Center
Thu 04:45:32 AM 55.3167 -134.0167 311° West 430 495 36,000  Level Vancouver Center
Thu 04:46:32 AM 55.3833 -134.1833 305° West 430 495 36,000  Level Vancouver Center
Thu 04:47:32 AM 55.4833 -134.3333 320° Northwest 430 495 36,000  Level Vancouver Center
Thu 04:48:32 AM 55.5500 -134.4667 312° West 430 495 36,000  Level Vancouver Center
Thu 04:49:32 AM 55.6333 -134.6333 312° West 430 495 36,000  Level Vancouver Center
Thu 04:50:32 AM 55.7000 -134.8000 305° West 430 495 36,000  Level Vancouver Center
Thu 04:51:32 AM 55.8000 -134.9500 320° Northwest 430 495 36,000  Level Vancouver Center
Thu 04:52:32 AM 55.8833 -135.1167 312° West 440 506 36,000  Level Vancouver Center
Thu 04:53:32 AM 55.9500 -135.2667 308° West 440 506 36,000  Level Vancouver Center
Thu 04:54:32 AM 56.0333 -135.4333 312° West 440 506 36,000  Level Vancouver Center
Thu 04:55:32 AM 56.1167 -135.6167 309° West 440 506 36,000  Level Vancouver Center
Thu 04:56:32 AM 56.1833 -135.7500 312° West 440 506 36,000  Level Vancouver Center
Thu 04:57:32 AM 56.2667 -135.9333 309° West 440 506 36,000  Level Vancouver Center
Thu 04:58:32 AM 56.3500 -136.0833 315° West 440 506 36,000  Level Vancouver Center
Thu 04:59:32 AM 56.4167 -136.2167 312° West 440 506 36,000  Level Vancouver Center
Thu 05:00:32 AM 56.5000 -136.4000 310° West 440 506 36,000  Level Vancouver Center
Thu 05:01:02 AM 56.5500 -136.4333 340° North 440 506 36,000  Level Anchorage Center
Thu 05:02:32 AM 56.6667 -136.7333 305° West 440 506 36,000  Level Vancouver Center
Thu 05:03:32 AM 56.7333 -136.9000 306° West 440 506 36,000  Level Vancouver Center
Thu 05:04:03 AM 56.7833 -136.9333 340° North 440 506 36,000  Level Anchorage Center
Thu 05:05:03 AM 56.8667 -137.1167 310° West 440 506 36,000  Level Anchorage Center
Thu 05:06:04 AM 56.9500 -137.2833 313° West 440 506 36,000  Level Anchorage Center
Thu 05:07:04 AM 57.0333 -137.4667 310° West 440 506 36,000  Level Anchorage Center
Thu 05:08:04 AM 57.1000 -137.6333 306° West 440 506 36,000  Level Anchorage Center
Thu 05:09:05 AM 57.1833 -137.8000 313° West 430 495 36,000  Level Anchorage Center
Thu 05:10:05 AM 57.2667 -137.9833 310° West 440 506 36,000  Level Anchorage Center
Thu 05:11:05 AM 57.3333 -138.1500 307° West 440 506 36,000  Level Anchorage Center
Thu 05:12:06 AM 57.4167 -138.3333 310° West 450 518 36,000  Level Anchorage Center
Thu 05:13:06 AM 57.5000 -138.5167 310° West 450 518 36,000  Level Anchorage Center
Thu 05:14:06 AM 57.5667 -138.7000 304° West 440 506 36,000  Level Anchorage Center
Thu 05:15:07 AM 57.6500 -138.8833 310° West 450 518 36,000  Level Anchorage Center
Thu 05:16:07 AM 57.7167 -139.0500 307° West 450 518 36,000  Level Anchorage Center
Thu 05:17:07 AM 57.8000 -139.2333 311° West 450 518 36,000  Level Anchorage Center
Thu 05:18:08 AM 57.8833 -139.4167 311° West 450 518 36,000  Level Anchorage Center
Thu 05:19:08 AM 57.9500 -139.6000 304° West 450 518 36,000  Level Anchorage Center
Thu 05:20:08 AM 58.0333 -139.7833 311° West 450 518 36,000  Level Anchorage Center
Thu 05:21:09 AM 58.1167 -139.9667 311° West 450 518 36,000  Level Anchorage Center
Thu 05:22:09 AM 58.1833 -140.1667 302° West 450 518 36,000  Level Anchorage Center
Thu 05:23:09 AM 58.2667 -140.3500 311° West 450 518 36,000  Level Anchorage Center
Thu 05:24:10 AM 58.3333 -140.5500 302° West 440 506 36,000  Level Anchorage Center
Thu 05:25:10 AM 58.4167 -140.7333 311° West 440 506 36,000  Level Anchorage Center
Thu 05:26:11 AM 58.5000 -140.9167 311° West 450 518 36,000  Level Anchorage Center
Thu 05:27:11 AM 58.5667 -141.1167 303° West 450 518 36,000  Level Anchorage Center
Thu 05:28:11 AM 58.6500 -141.3167 309° West 450 518 36,000  Level Anchorage Center
Thu 05:29:12 AM 58.7167 -141.5000 305° West 450 518 36,000  Level Anchorage Center
Thu 05:30:12 AM 58.7833 -141.7000 303° West 440 506 36,000  Level Anchorage Center
Thu 05:31:12 AM 58.8667 -141.9000 309° West 450 518 36,000  Level Anchorage Center
Thu 05:32:12 AM 58.9333 -142.0833 305° West 450 518 36,000  Level Anchorage Center
Thu 05:33:12 AM 59.0167 -142.2833 309° West 450 518 36,000  Level Anchorage Center
Thu 05:34:13 AM 59.1000 -142.4833 309° West 450 518 36,000  Level Anchorage Center
Thu 05:35:13 AM 59.1667 -142.6833 303° West 450 518 36,000  Level Anchorage Center
Thu 05:36:13 AM 59.2500 -142.8833 309° West 460 529 36,000  Level Anchorage Center
Thu 05:37:14 AM 59.3167 -143.1000 301° West 460 529 36,000  Level Anchorage Center
Thu 05:38:14 AM 59.4000 -143.3000 309° West 450 518 36,000  Level Anchorage Center
Thu 05:39:14 AM 59.4667 -143.5000 303° West 450 518 36,000  Level Anchorage Center
Thu 05:40:15 AM 59.5500 -143.7167 307° West 450 518 36,000  Level Anchorage Center
Thu 05:41:15 AM 59.6167 -143.9167 303° West 450 518 36,000  Level Anchorage Center
Thu 05:42:15 AM 59.7000 -144.1167 310° West 450 518 36,000  Level Anchorage Center
Thu 05:43:16 AM 59.7667 -144.3167 304° West 450 518 36,000  Level Anchorage Center
Thu 05:44:16 AM 59.8333 -144.5333 302° West 460 529 36,000  Level Anchorage Center
Thu 05:45:17 AM 59.9167 -144.7333 310° West 440 506 36,000  Level Anchorage Center
Thu 05:46:17 AM 59.9833 -144.9333 304° West 450 518 36,000  Level Anchorage Center
Thu 05:47:17 AM 60.0500 -145.1333 304° West 440 506 36,000  Level Anchorage Center
Thu 05:48:18 AM 60.1167 -145.3500 302° West 440 506 36,000  Level Anchorage Center
Thu 05:49:18 AM 60.2000 -145.5500 310° West 440 506 36,000  Level Anchorage Center
Thu 05:50:18 AM 60.2667 -145.7667 302° West 450 518 36,000  Level Anchorage Center
Thu 05:51:19 AM 60.3333 -145.9667 304° West 450 518 36,000  Level Anchorage Center
Thu 05:52:19 AM 60.4000 -146.1667 304° West 450 518 36,000  Level Anchorage Center
Thu 05:53:19 AM 60.4667 -146.3833 302° West 450 518 36,000  Level Anchorage Center
Thu 05:54:20 AM 60.5500 -146.6333 304° West 450 518 36,000 -248 Level Anchorage Center
Thu 05:55:20 AM 60.6167 -146.8500 302° West 450 518 35,500 -700 Descending Anchorage Center
Thu 05:56:20 AM 60.6833 -147.0667 302° West 440 506 34,600 -1,686 Descending Anchorage Center
Thu 05:57:21 AM 60.7500 -147.2667 304° West 440 506 32,100 -2,281 Descending Anchorage Center
Thu 05:58:21 AM 60.8333 -147.5000 306° West 440 506 30,000 -1,934 Descending Anchorage Center
Thu 05:59:22 AM 60.8833 -147.7000 297° West 420 483 28,200 -1,884 Descending Anchorage Center
Thu 06:00:22 AM 60.9500 -147.9000 305° West 400 460 26,200 -1,850 Descending Anchorage Center
Thu 06:01:22 AM 61.0000 -148.0500 305° West 390 449 24,500 -1,686 Descending Anchorage Center
Thu 06:02:23 AM 61.0500 -148.2500 297° West 380 437 22,800 -1,736 Descending Anchorage Center
Thu 06:03:23 AM 61.1000 -148.4333 299° West 370 426 21,000 -1,800 Descending Anchorage Center
Thu 06:05:00 AM 61.1971 -148.7523 300° West  Level FlightAware Approximate
Thu 06:12:00 AM 61.1667 -149.9833 243° Southwest  Level FlightAware Approximate
Thu 06:13:00 AM 61.1741 -149.9982 243° Southwest  Level Estimated
Thu 06:14:00 AM 61.1741 -149.9982 243° Southwest  Level Estimated
Thu 06:15:00 AM 61.1741 -149.9982 243° Southwest  Level Estimated
Thu 06:16:00 AM 61.1741 -149.9982 243° Southwest  Level Estimated
Thu 06:17:00 AM 61.1741 -149.9982 243° Southwest  Level Estimated
Thu 06:18:00 AM 61.1741 -149.9982 243° Southwest  Level Estimated
Thu 06:19:00 AM 61.1741 -149.9982 243° Southwest  Level Estimated
Thu 06:20:00 AM 61.1741 -149.9982 243° Southwest  Level Estimated
Thu 06:21:00 AM 61.1741 -149.9982 243° Southwest  Level Estimated
Thu 06:22:00 AM 61.1741 -149.9982 243° Southwest  Level Estimated
Thu 06:23:00 AM 61.1741 -149.9982 243° Southwest  Level Estimated
Thu 06:24:00 AM 61.1741 -149.9982 243° Southwest  Level Estimated
Thu 06:25:00 AM 61.1741 -149.9982 243° Southwest  Level Estimated
Thu 06:26:00 AM 61.1741 -149.9982 243° Southwest  Level Estimated
Thu 06:27:00 AM 61.1741 -149.9982 243° Southwest  Level Estimated

Login

Don't have an account? Register now (free) for customized features, flight alerts, and more!